createdAt,value
2022-08-12T00:02:45.029Z,16.80
2022-08-12T00:05:31.777Z,16.80
2022-08-12T00:08:28.576Z,16.90
2022-08-12T00:11:21.371Z,16.80
2022-08-12T00:14:07.110Z,16.80
2022-08-12T00:16:53.258Z,16.70
2022-08-12T00:19:38.501Z,16.60
2022-08-12T00:22:24.347Z,16.70
2022-08-12T00:25:16.307Z,16.60
2022-08-12T00:28:02.823Z,16.60
2022-08-12T00:30:48.306Z,16.60
2022-08-12T00:33:51.550Z,16.60
2022-08-12T00:36:46.780Z,16.50
2022-08-12T00:39:35.876Z,16.40
2022-08-12T00:42:12.359Z,16.40
2022-08-12T00:44:42.559Z,16.30
2022-08-12T00:47:24.446Z,16.20
2022-08-12T00:49:53.171Z,16.10
2022-08-12T00:52:20.886Z,16.10
2022-08-12T00:55:00.170Z,16.10
2022-08-12T00:57:35.543Z,16.00
2022-08-12T01:00:08.654Z,15.80
2022-08-12T01:02:39.592Z,15.90
2022-08-12T01:05:51.693Z,15.80
2022-08-12T01:08:36.893Z,15.80
2022-08-12T01:11:22.654Z,15.70
2022-08-12T01:13:50.265Z,15.70
2022-08-12T01:16:22.582Z,15.70
2022-08-12T01:18:51.723Z,15.70
2022-08-12T01:21:27.316Z,15.60
2022-08-12T01:24:32.192Z,15.60
2022-08-12T01:27:01.294Z,15.60
2022-08-12T01:29:33.147Z,15.60
2022-08-12T01:32:05.405Z,15.60
2022-08-12T01:34:37.784Z,15.50
2022-08-12T01:37:07.654Z,15.40
2022-08-12T01:40:33.740Z,15.30
2022-08-12T01:42:31.503Z,15.30
2022-08-12T01:44:59.944Z,15.30
2022-08-12T01:47:49.861Z,15.30
2022-08-12T01:50:40.096Z,15.30
2022-08-12T01:53:12.355Z,15.20
2022-08-12T01:55:49.403Z,15.20
2022-08-12T01:58:55.402Z,15.20
2022-08-12T02:01:24.915Z,15.20
2022-08-12T02:04:34.510Z,15.10
2022-08-12T02:07:47.614Z,15.10
2022-08-12T02:11:14.521Z,15.00
2022-08-12T02:14:13.427Z,15.00
2022-08-12T02:16:50.638Z,14.90
2022-08-12T02:19:39.406Z,14.90
2022-08-12T02:22:30.178Z,14.90
2022-08-12T02:25:08.201Z,14.90
2022-08-12T02:27:42.637Z,14.90
2022-08-12T02:30:12.185Z,14.90
2022-08-12T02:32:42.279Z,14.90
2022-08-12T02:35:23.790Z,14.80
2022-08-12T02:37:53.854Z,14.80
2022-08-12T02:40:22.841Z,14.80
2022-08-12T02:43:00.853Z,14.80
2022-08-12T02:45:42.653Z,14.70
2022-08-12T02:48:15.185Z,14.80
2022-08-12T02:50:46.689Z,14.70
2022-08-12T02:53:14.581Z,14.70
2022-08-12T02:55:41.451Z,14.60
2022-08-12T02:58:12.624Z,14.60
2022-08-12T03:00:42.950Z,14.60
2022-08-12T03:03:12.609Z,14.50
2022-08-12T03:05:52.453Z,14.40
2022-08-12T03:08:32.712Z,14.40
2022-08-12T03:11:14.128Z,14.40
2022-08-12T03:13:46.097Z,14.40
2022-08-12T03:16:14.587Z,14.40
2022-08-12T03:18:46.379Z,14.30
2022-08-12T03:21:17.416Z,14.30
2022-08-12T03:24:06.095Z,14.30
2022-08-12T03:26:35.933Z,14.40
2022-08-12T03:29:06.718Z,14.30
2022-08-12T03:31:34.043Z,14.30
2022-08-12T03:34:10.185Z,14.30
2022-08-12T03:36:41.848Z,14.30
2022-08-12T03:39:18.977Z,14.20
2022-08-12T03:42:06.229Z,14.10
2022-08-12T03:44:59.036Z,14.10
2022-08-12T03:47:50.012Z,14.10
2022-08-12T03:50:36.526Z,14.10
2022-08-12T03:53:25.022Z,14.00
2022-08-12T03:56:10.544Z,14.00
2022-08-12T03:58:57.226Z,14.00
2022-08-12T04:01:26.283Z,14.00
2022-08-12T04:03:53.889Z,13.90
2022-08-12T04:06:35.316Z,13.90
2022-08-12T04:09:14.546Z,14.00
2022-08-12T04:12:03.459Z,14.00
2022-08-12T04:14:30.684Z,14.00
2022-08-12T04:16:57.717Z,14.00
2022-08-12T04:19:26.329Z,13.90
2022-08-12T04:22:02.498Z,13.90
2022-08-12T04:24:35.210Z,13.80
2022-08-12T04:27:08.615Z,14.00
2022-08-12T04:30:30.064Z,13.80
2022-08-12T04:32:24.731Z,13.80
2022-08-12T04:34:52.120Z,13.90
2022-08-12T04:37:19.394Z,13.90
2022-08-12T04:39:46.627Z,13.90
2022-08-12T04:42:13.808Z,13.90
2022-08-12T04:44:42.452Z,13.90
2022-08-12T04:47:15.073Z,13.90
2022-08-12T04:49:45.048Z,14.00
2022-08-12T04:52:12.599Z,14.00
2022-08-12T04:54:39.355Z,14.00
2022-08-12T04:57:09.825Z,14.10
2022-08-12T04:59:47.063Z,14.10
2022-08-12T05:02:21.076Z,14.10
2022-08-12T05:04:56.368Z,14.10
2022-08-12T05:07:28.187Z,14.10
2022-08-12T05:09:59.991Z,14.10
2022-08-12T05:12:44.901Z,14.20
2022-08-12T05:15:27.428Z,14.20
2022-08-12T05:17:55.979Z,14.20
2022-08-12T05:20:26.188Z,14.30
2022-08-12T05:23:11.791Z,14.40
2022-08-12T05:25:43.217Z,14.50
2022-08-12T05:28:11.513Z,14.60
2022-08-12T05:30:38.463Z,14.60
2022-08-12T05:33:06.438Z,14.70
2022-08-12T05:35:39.966Z,14.90
2022-08-12T05:38:27.257Z,15.00
2022-08-12T05:40:54.121Z,15.10
2022-08-12T05:43:21.189Z,15.30
2022-08-12T05:45:49.621Z,15.50
2022-08-12T05:48:16.585Z,15.80
2022-08-12T05:50:45.517Z,16.00
2022-08-12T05:53:13.266Z,16.60
2022-08-12T05:55:40.714Z,18.60
2022-08-12T05:58:08.195Z,20.30
2022-08-12T06:00:36.150Z,21.50
2022-08-12T06:03:04.780Z,22.90
2022-08-12T06:05:43.973Z,24.10
2022-08-12T06:08:23.052Z,24.30
2022-08-12T06:10:50.414Z,24.30
2022-08-12T06:13:28.303Z,24.80
2022-08-12T06:16:07.388Z,25.70
2022-08-12T06:18:34.722Z,26.50
2022-08-12T06:21:02.399Z,26.90
2022-08-12T06:23:30.270Z,27.10
2022-08-12T06:25:57.865Z,27.50
2022-08-12T06:28:25.685Z,28.10
2022-08-12T06:31:22.026Z,28.40
2022-08-12T06:33:59.448Z,28.00
2022-08-12T06:36:33.342Z,27.60
2022-08-12T06:39:00.859Z,28.40
2022-08-12T06:42:10.711Z,28.60
2022-08-12T06:44:32.943Z,28.80
2022-08-12T06:47:00.093Z,29.10
2022-08-12T06:49:28.375Z,29.10
2022-08-12T06:51:56.604Z,28.90
2022-08-12T06:54:31.493Z,27.10
2022-08-12T06:57:57.248Z,25.20
2022-08-12T06:59:46.473Z,23.00
2022-08-12T07:02:13.215Z,22.30
2022-08-12T07:04:40.592Z,23.10
2022-08-12T07:07:10.820Z,24.70
2022-08-12T07:10:05.198Z,26.60
2022-08-12T07:12:27.977Z,25.40
2022-08-12T07:14:56.557Z,25.40
2022-08-12T07:17:23.406Z,26.40
2022-08-12T07:19:52.122Z,27.20
2022-08-12T07:22:19.493Z,27.70
2022-08-12T07:25:06.197Z,27.70
2022-08-12T07:27:41.015Z,28.00
2022-08-12T07:30:09.862Z,28.70
2022-08-12T07:32:36.820Z,28.90
2022-08-12T07:35:04.437Z,29.60
2022-08-12T07:37:31.528Z,29.70
2022-08-12T07:39:59.579Z,29.80
2022-08-12T07:42:27.331Z,29.30
2022-08-12T07:44:54.974Z,30.30
2022-08-12T07:47:21.751Z,30.00
2022-08-12T07:50:04.534Z,29.10
2022-08-12T07:52:47.038Z,27.00
2022-08-12T07:55:15.301Z,25.40
2022-08-12T07:57:59.732Z,25.10
2022-08-12T08:00:28.568Z,24.70
2022-08-12T08:02:55.585Z,25.10
2022-08-12T08:05:24.724Z,25.00
2022-08-12T08:07:53.421Z,25.30
2022-08-12T08:10:20.952Z,25.00
2022-08-12T08:12:53.535Z,24.70
2022-08-12T08:15:38.683Z,25.20
2022-08-12T08:18:14.877Z,25.70
2022-08-12T08:20:52.768Z,25.40
2022-08-12T08:23:19.712Z,25.50
2022-08-12T08:25:50.076Z,25.40
2022-08-12T08:28:17.439Z,25.40
2022-08-12T08:30:46.192Z,25.50
2022-08-12T08:33:21.890Z,25.60
2022-08-12T08:35:55.282Z,25.60
2022-08-12T08:38:33.380Z,25.30
2022-08-12T08:42:17.445Z,25.80
2022-08-12T08:44:11.337Z,25.60
2022-08-12T08:46:44.499Z,25.30
2022-08-12T08:49:13.103Z,25.50
2022-08-12T08:51:40.556Z,25.30
2022-08-12T08:54:08.787Z,24.90
2022-08-12T08:56:52.333Z,25.30
2022-08-12T08:59:19.930Z,25.60
2022-08-12T09:01:47.923Z,25.40
2022-08-12T09:05:08.343Z,26.20
2022-08-12T09:07:17.978Z,26.10
2022-08-12T09:10:03.739Z,26.20
2022-08-12T09:12:54.981Z,26.30
2022-08-12T09:15:35.743Z,26.00
2022-08-12T09:20:38.594Z,26.10
2022-08-12T09:23:58.906Z,26.30
2022-08-12T09:28:31.287Z,26.20
2022-08-12T09:30:59.324Z,26.40
2022-08-12T09:34:25.651Z,26.40
2022-08-12T09:36:31.145Z,26.70
2022-08-12T09:40:00.463Z,26.90
2022-08-12T09:42:39.100Z,26.80
2022-08-12T09:45:24.569Z,26.40
2022-08-12T09:48:09.510Z,26.60
2022-08-12T09:50:36.633Z,26.60
2022-08-12T09:53:14.948Z,26.40
2022-08-12T09:55:57.245Z,26.50
2022-08-12T09:58:54.045Z,26.40
2022-08-12T10:01:23.330Z,26.60
2022-08-12T10:04:02.958Z,26.20
2022-08-12T10:06:36.553Z,26.40
2022-08-12T10:09:18.499Z,28.60
2022-08-12T10:12:11.935Z,29.90
2022-08-12T10:14:50.532Z,28.10
2022-08-12T10:17:22.884Z,27.90
2022-08-12T10:19:52.968Z,27.80
2022-08-12T10:22:37.206Z,27.90
2022-08-12T10:26:34.851Z,27.70
2022-08-12T10:28:38.209Z,27.50
2022-08-12T10:31:06.159Z,28.00
2022-08-12T10:33:54.848Z,27.30
2022-08-12T10:36:21.715Z,27.00
2022-08-12T10:40:00.218Z,27.10
2022-08-12T10:42:14.491Z,27.60
2022-08-12T10:44:41.326Z,27.50
2022-08-12T10:47:26.288Z,27.30
2022-08-12T10:50:05.271Z,27.30
2022-08-12T10:52:48.162Z,27.50
2022-08-12T10:55:19.609Z,27.40
2022-08-12T10:58:15.094Z,27.50
2022-08-12T11:00:55.025Z,27.70
2022-08-12T11:04:25.546Z,27.10
2022-08-12T11:07:10.201Z,27.40
2022-08-12T11:12:07.591Z,27.40
2022-08-12T11:14:49.384Z,27.40
2022-08-12T11:17:34.358Z,27.40
2022-08-12T11:19:56.605Z,27.60
2022-08-12T11:22:24.222Z,27.60
2022-08-12T11:24:53.755Z,27.20
2022-08-12T11:27:22.404Z,27.60
2022-08-12T11:30:05.288Z,27.80
2022-08-12T11:32:39.196Z,27.80
2022-08-12T11:35:07.348Z,27.40
2022-08-12T11:37:55.858Z,27.40
2022-08-12T11:40:22.755Z,27.40
2022-08-12T11:42:50.194Z,27.70
2022-08-12T11:45:19.679Z,27.60
2022-08-12T11:47:46.788Z,28.10
2022-08-12T11:50:19.131Z,28.40
2022-08-12T11:52:56.047Z,28.40
2022-08-12T11:55:25.410Z,28.30
2022-08-12T11:58:13.650Z,28.10
2022-08-12T12:03:40.279Z,28.20
2022-08-12T12:06:16.803Z,28.20
2022-08-12T12:08:49.787Z,28.40
2022-08-12T12:11:18.985Z,28.40
2022-08-12T12:14:07.855Z,28.20
2022-08-12T12:16:33.679Z,27.90
2022-08-12T12:19:10.239Z,28.10
2022-08-12T12:21:47.647Z,28.50
2022-08-12T12:24:20.904Z,28.60
2022-08-12T12:27:00.745Z,28.20
2022-08-12T12:30:13.937Z,28.40
2022-08-12T12:32:28.921Z,28.20
2022-08-12T12:35:18.258Z,28.20
2022-08-12T12:38:05.601Z,28.40
2022-08-12T12:40:44.124Z,28.70
2022-08-12T12:43:12.513Z,28.50
2022-08-12T12:45:44.343Z,28.30
2022-08-12T12:48:14.432Z,28.50
2022-08-12T12:50:42.734Z,28.60
2022-08-12T12:54:08.549Z,28.60
2022-08-12T12:56:03.064Z,28.60
2022-08-12T12:58:30.467Z,28.20
2022-08-12T13:01:04.511Z,28.00
2022-08-12T13:03:48.844Z,28.60
2022-08-12T13:06:16.087Z,28.60
2022-08-12T13:08:46.913Z,28.90
2022-08-12T13:11:14.732Z,28.60
2022-08-12T13:14:09.985Z,28.60
2022-08-12T13:16:31.186Z,28.40
2022-08-12T13:18:58.520Z,28.10
2022-08-12T13:21:33.573Z,28.60
2022-08-12T13:24:10.367Z,28.60
2022-08-12T13:26:40.004Z,28.80
2022-08-12T13:29:11.088Z,28.60
2022-08-12T13:32:13.459Z,28.70
2022-08-12T13:34:33.583Z,28.90
2022-08-12T13:37:04.473Z,29.10
2022-08-12T13:39:36.320Z,28.70
2022-08-12T13:42:03.178Z,28.50
2022-08-12T13:44:30.341Z,28.50
2022-08-12T13:46:58.554Z,28.40
2022-08-12T13:49:53.881Z,28.40
2022-08-12T13:52:13.960Z,28.20
2022-08-12T13:54:40.717Z,28.40
2022-08-12T13:57:11.141Z,28.90
2022-08-12T13:59:55.025Z,28.80
2022-08-12T14:02:24.442Z,28.70
2022-08-12T14:04:56.267Z,28.90
2022-08-12T14:07:25.980Z,28.70
2022-08-12T14:10:12.116Z,28.90
2022-08-12T14:12:54.566Z,28.70
2022-08-12T14:15:34.992Z,28.60
2022-08-12T14:18:36.316Z,28.80
2022-08-12T14:21:10.183Z,28.70
2022-08-12T14:24:01.264Z,29.00
2022-08-12T14:26:36.336Z,29.20
2022-08-12T14:29:05.828Z,29.30
2022-08-12T14:31:33.037Z,29.10
2022-08-12T14:33:59.883Z,28.90
2022-08-12T14:36:27.020Z,29.00
2022-08-12T14:38:55.204Z,29.10
2022-08-12T14:41:36.522Z,28.90
2022-08-12T14:44:56.901Z,29.20
2022-08-12T14:46:55.791Z,28.90
2022-08-12T14:50:01.693Z,28.90
2022-08-12T14:52:55.484Z,28.90
2022-08-12T14:57:57.785Z,29.50
2022-08-12T15:00:52.127Z,29.40
2022-08-12T15:03:20.551Z,29.50
2022-08-12T15:06:05.760Z,29.20
2022-08-12T15:08:41.754Z,29.30
2022-08-12T15:11:15.593Z,29.40
2022-08-12T15:13:49.532Z,29.60
2022-08-12T15:16:18.828Z,29.70
2022-08-12T15:18:55.194Z,29.50
2022-08-12T15:22:38.022Z,29.50
2022-08-12T15:24:13.055Z,29.20
2022-08-12T15:26:41.045Z,29.20
2022-08-12T15:29:07.815Z,29.20
2022-08-12T15:31:59.778Z,28.90
2022-08-12T15:34:30.845Z,29.20
2022-08-12T15:36:57.739Z,29.10
2022-08-12T15:41:55.563Z,29.10
2022-08-12T15:44:41.895Z,29.10
2022-08-12T15:47:10.022Z,29.00
2022-08-12T15:49:54.530Z,29.30
2022-08-12T15:52:28.205Z,29.20
2022-08-12T15:54:58.526Z,29.00
2022-08-12T15:57:27.092Z,29.00
2022-08-12T16:00:04.258Z,29.20
2022-08-12T16:02:50.702Z,29.00
2022-08-12T16:06:11.924Z,28.90
2022-08-12T16:08:17.204Z,29.00
2022-08-12T16:10:46.734Z,29.10
2022-08-12T16:13:18.114Z,29.00
2022-08-12T16:16:02.302Z,28.90
2022-08-12T16:18:35.637Z,29.00
2022-08-12T16:21:05.086Z,29.30
2022-08-12T16:23:51.776Z,29.20
2022-08-12T16:26:27.609Z,28.80
2022-08-12T16:29:02.378Z,28.90
2022-08-12T16:31:42.518Z,28.80
2022-08-12T16:34:25.754Z,29.00
2022-08-12T16:37:03.223Z,29.10
2022-08-12T16:39:57.328Z,28.90
2022-08-12T16:42:22.536Z,28.90
2022-08-12T16:44:49.885Z,28.70
2022-08-12T16:47:18.727Z,28.90
2022-08-12T16:49:47.090Z,28.90
2022-08-12T16:52:15.105Z,29.10
2022-08-12T16:54:44.196Z,29.80
2022-08-12T16:57:11.248Z,29.50
2022-08-12T16:59:54.274Z,29.10
2022-08-12T17:02:33.605Z,29.40
2022-08-12T17:05:04.741Z,29.80
2022-08-12T17:07:43.245Z,30.20
2022-08-12T17:10:18.590Z,29.60
2022-08-12T17:13:10.189Z,30.20
2022-08-12T17:15:50.430Z,29.70
2022-08-12T17:18:42.825Z,29.70
2022-08-12T17:21:19.688Z,29.60
2022-08-12T17:23:53.368Z,29.40
2022-08-12T17:26:27.968Z,29.00
2022-08-12T17:28:56.804Z,28.70
2022-08-12T17:31:53.131Z,28.30
2022-08-12T17:34:30.251Z,28.20
2022-08-12T17:36:58.748Z,28.20
2022-08-12T17:40:13.562Z,28.10
2022-08-12T17:42:32.575Z,28.00
2022-08-12T17:45:01.877Z,28.00
2022-08-12T17:48:01.312Z,27.90
2022-08-12T17:50:32.613Z,27.90
2022-08-12T17:53:03.079Z,27.80
2022-08-12T17:55:44.083Z,27.80
2022-08-12T17:58:35.559Z,27.60
2022-08-12T18:01:06.146Z,27.60
2022-08-12T18:04:04.866Z,27.60
2022-08-12T18:06:28.211Z,27.50
2022-08-12T18:08:59.145Z,27.60
2022-08-12T18:12:06.645Z,27.50
2022-08-12T18:14:32.581Z,27.40
2022-08-12T18:17:01.633Z,27.30
2022-08-12T18:19:34.288Z,27.20
2022-08-12T18:22:21.943Z,27.20
2022-08-12T18:25:03.744Z,27.10
2022-08-12T18:27:44.236Z,27.10
2022-08-12T18:30:16.245Z,27.10
2022-08-12T18:32:58.752Z,26.80
2022-08-12T18:35:47.890Z,26.80
2022-08-12T18:38:20.932Z,26.60
2022-08-12T18:41:09.361Z,26.40
2022-08-12T18:43:57.593Z,26.30
2022-08-12T18:46:55.465Z,26.10
2022-08-12T18:49:33.513Z,26.00
2022-08-12T18:52:05.703Z,25.90
2022-08-12T18:54:41.372Z,25.70
2022-08-12T18:57:45.911Z,25.70
2022-08-12T19:00:06.854Z,25.50
2022-08-12T19:02:40.548Z,25.30
2022-08-12T19:05:11.246Z,25.10
2022-08-12T19:08:01.199Z,24.80
2022-08-12T19:10:30.881Z,24.50
2022-08-12T19:13:23.835Z,24.40
2022-08-12T19:15:53.749Z,24.30
2022-08-12T19:18:22.272Z,24.10
2022-08-12T19:20:50.366Z,24.00
2022-08-12T19:23:20.881Z,23.90
2022-08-12T19:26:00.715Z,23.70
2022-08-12T19:28:34.897Z,23.80
2022-08-12T19:31:55.959Z,23.60
2022-08-12T19:35:25.919Z,23.50
2022-08-12T19:38:04.173Z,23.30
2022-08-12T19:40:30.928Z,23.20
2022-08-12T19:43:17.863Z,23.10
2022-08-12T19:45:53.172Z,23.00
2022-08-12T19:48:23.438Z,22.80
2022-08-12T19:50:53.384Z,22.70
2022-08-12T19:53:24.924Z,22.60
2022-08-12T19:55:56.424Z,22.50
2022-08-12T19:58:24.569Z,22.40
2022-08-12T20:00:55.799Z,22.20
2022-08-12T20:03:38.197Z,22.10
2022-08-12T20:06:11.113Z,22.00
2022-08-12T20:08:48.741Z,21.80
2022-08-12T20:12:11.511Z,21.70
2022-08-12T20:14:09.515Z,21.80
2022-08-12T20:16:57.801Z,21.60
2022-08-12T20:19:52.377Z,21.70
2022-08-12T20:22:24.637Z,21.60
2022-08-12T20:25:01.732Z,21.60
2022-08-12T20:28:03.255Z,21.50
2022-08-12T20:30:20.706Z,22.00
2022-08-12T20:33:05.286Z,21.80
2022-08-12T20:36:06.935Z,21.70
2022-08-12T20:38:26.494Z,21.70
2022-08-12T20:40:55.081Z,21.80
2022-08-12T20:43:24.151Z,22.00
2022-08-12T20:45:57.951Z,21.90
2022-08-12T20:48:26.237Z,21.80
2022-08-12T20:50:57.975Z,21.60
2022-08-12T20:53:53.811Z,21.40
2022-08-12T20:56:30.751Z,21.10
2022-08-12T20:59:01.080Z,21.00
2022-08-12T21:01:29.185Z,20.80
2022-08-12T21:04:31.635Z,20.70
2022-08-12T21:07:08.507Z,20.50
2022-08-12T21:09:43.922Z,20.30
2022-08-12T21:12:28.193Z,20.10
2022-08-12T21:15:17.272Z,20.30
2022-08-12T21:18:11.358Z,20.00
2022-08-12T21:20:50.280Z,19.90
2022-08-12T21:23:21.191Z,19.80
2022-08-12T21:25:51.249Z,19.60
2022-08-12T21:28:20.961Z,19.30
2022-08-12T21:31:10.611Z,19.50
2022-08-12T21:33:58.278Z,19.40
2022-08-12T21:36:34.638Z,19.40
2022-08-12T21:39:18.987Z,19.30
2022-08-12T21:41:54.388Z,19.30
2022-08-12T21:45:45.776Z,19.10
2022-08-12T21:47:20.851Z,19.10
2022-08-12T21:50:02.239Z,19.00
2022-08-12T21:52:34.690Z,18.90
2022-08-12T21:55:04.645Z,19.00
2022-08-12T21:57:48.112Z,18.70
2022-08-12T22:00:31.517Z,18.80
2022-08-12T22:03:54.961Z,18.80
2022-08-12T22:06:30.630Z,18.50
2022-08-12T22:09:02.716Z,18.30
2022-08-12T22:11:42.119Z,18.40
2022-08-12T22:14:21.303Z,18.30
2022-08-12T22:16:50.585Z,18.30
2022-08-12T22:19:19.549Z,18.10
2022-08-12T22:21:52.442Z,18.20
2022-08-12T22:24:25.716Z,18.10
2022-08-12T22:26:54.059Z,18.30
2022-08-12T22:29:39.399Z,18.00
2022-08-12T22:32:06.928Z,17.90
2022-08-12T22:34:38.338Z,17.90
2022-08-12T22:37:11.297Z,17.80
2022-08-12T22:39:43.829Z,17.80
2022-08-12T22:42:41.023Z,17.90
2022-08-12T22:45:27.166Z,17.70
2022-08-12T22:47:55.820Z,17.70
2022-08-12T22:50:29.569Z,17.60
2022-08-12T22:53:16.077Z,17.50
2022-08-12T22:56:05.623Z,17.50
2022-08-12T22:58:33.705Z,17.40
2022-08-12T23:01:02.360Z,17.40
2022-08-12T23:03:48.679Z,17.10
2022-08-12T23:06:23.837Z,17.10
2022-08-12T23:08:51.714Z,16.90
2022-08-12T23:11:23.181Z,17.10
2022-08-12T23:13:55.286Z,16.90
2022-08-12T23:16:31.579Z,16.90
2022-08-12T23:19:18.080Z,16.90
2022-08-12T23:22:06.603Z,16.70
2022-08-12T23:24:55.565Z,16.70
2022-08-12T23:27:51.861Z,16.70
2022-08-12T23:30:31.197Z,16.90
2022-08-12T23:33:00.701Z,16.80
2022-08-12T23:35:45.616Z,16.80
2022-08-12T23:38:24.623Z,16.80
2022-08-12T23:43:49.889Z,16.70
2022-08-12T23:46:18.639Z,16.60
2022-08-12T23:48:47.964Z,16.60
2022-08-12T23:51:22.241Z,16.60
2022-08-12T23:53:56.312Z,16.40
2022-08-12T23:56:27.145Z,16.40
2022-08-12T23:58:57.699Z,16.40
